Time;durP1;ratioP1;P1;durP2;ratioP2;P2;SDS_P1;SDS_P2;PMS_P1;PMS_P2;Temp;Humidity;BMP_temperature;BMP_pressure;BME280_temperature;BME280_humidity;BME280_pressure;Samples;Min_cycle;Max_cycle;Signal;HPM_P1;HPM_P2
2021/01/19 00:01:44;;;;;;;1.08;1.08;;;;;;;;;;5053595;28;20221;-65
2021/01/19 00:04:10;;;;;;;0.60;0.60;;;;;;;;;;5059370;28;20184;-65
2021/01/19 00:06:37;;;;;;;0.90;0.88;;;;;;;;;;5064031;28;20202;-65
2021/01/19 00:09:03;;;;;;;0.60;0.60;;;;;;;;;;5065596;28;20172;-65
2021/01/19 00:11:29;;;;;;;1.08;1.08;;;;;;;;;;5065257;28;20200;-65
2021/01/19 00:13:55;;;;;;;0.80;0.80;;;;;;;;;;5061721;28;20202;-65
2021/01/19 00:16:21;;;;;;;0.60;0.60;;;;;;;;;;5053688;28;20540;-65
2021/01/19 00:18:47;;;;;;;0.80;0.80;;;;;;;;;;5069742;28;20769;-64
2021/01/19 00:21:13;;;;;;;0.70;0.70;;;;;;;;;;5071343;28;20234;-65
2021/01/19 00:23:39;;;;;;;1.10;1.10;;;;;;;;;;5067981;28;20172;-65
2021/01/19 00:26:05;;;;;;;0.95;0.95;;;;;;;;;;5069555;28;20173;-64
2021/01/19 00:28:31;;;;;;;1.10;1.10;;;;;;;;;;5067819;28;20185;-65
2021/01/19 00:30:57;;;;;;;1.02;1.02;;;;;;;;;;5068683;28;20433;-65
2021/01/19 00:33:23;;;;;;;0.70;0.70;;;;;;;;;;5067300;28;20180;-65
2021/01/19 00:35:49;;;;;;;0.70;0.70;;;;;;;;;;5069257;28;20410;-64
2021/01/19 00:38:15;;;;;;;0.70;0.70;;;;;;;;;;5066944;28;20399;-64
2021/01/19 00:40:41;;;;;;;0.70;0.70;;;;;;;;;;5070963;28;20594;-64
2021/01/19 00:43:07;;;;;;;1.08;1.08;;;;;;;;;;5072105;28;20198;-64
2021/01/19 00:45:33;;;;;;;0.80;0.80;;;;;;;;;;5071027;28;20210;-64
2021/01/19 00:47:59;;;;;;;1.10;1.10;;;;;;;;;;5058287;28;20406;-65
2021/01/19 00:50:25;;;;;;;0.60;0.60;;;;;;;;;;5052510;28;20242;-64
2021/01/19 00:52:51;;;;;;;0.87;0.87;;;;;;;;;;5052361;28;20543;-64
2021/01/19 00:55:17;;;;;;;0.85;0.85;;;;;;;;;;5052564;28;20512;-64
2021/01/19 00:57:46;;;;;;;0.70;0.70;;;;;;;;;;5052360;28;20199;-64
2021/01/19 01:00:13;;;;;;;0.60;0.60;;;;;;;;;;5050990;28;20563;-64
2021/01/19 01:02:39;;;;;;;0.60;0.60;;;;;;;;;;5052163;28;20212;-62
2021/01/19 01:05:06;;;;;;;0.70;0.70;;;;;;;;;;5052185;28;20663;-64
2021/01/19 01:07:35;;;;;;;0.70;0.70;;;;;;;;;;5052131;28;20418;-63
2021/01/19 01:10:01;;;;;;;1.23;1.23;;;;;;;;;;5051855;28;20591;-63
2021/01/19 01:12:27;;;;;;;0.65;0.65;;;;;;;;;;5052104;28;20179;-64
2021/01/19 01:14:53;;;;;;;0.70;0.70;;;;;;;;;;5052040;28;20199;-64
2021/01/19 01:17:19;;;;;;;1.05;1.05;;;;;;;;;;5051968;28;20203;-63
2021/01/19 01:19:45;;;;;;;0.60;0.60;;;;;;;;;;5051793;28;20195;-63
2021/01/19 01:22:11;;;;;;;1.48;1.48;;;;;;;;;;5051891;28;20212;-63
2021/01/19 01:24:37;;;;;;;1.15;1.15;;;;;;;;;;5052148;28;20232;-63
2021/01/19 01:27:04;;;;;;;2.95;1.15;;;;;;;;;;5051855;28;20282;-65
2021/01/19 01:29:30;;;;;;;0.50;0.50;;;;;;;;;;5051629;28;20261;-64
2021/01/19 01:31:56;;;;;;;0.87;0.87;;;;;;;;;;5052039;28;20169;-64
2021/01/19 01:34:22;;;;;;;1.17;1.17;;;;;;;;;;5051815;28;20453;-64
2021/01/19 01:36:48;;;;;;;0.68;0.68;;;;;;;;;;5050493;28;20167;-65
2021/01/19 01:39:13;;;;;;;0.60;0.60;;;;;;;;;;5051542;28;20724;-64
2021/01/19 01:41:40;;;;;;;1.27;1.27;;;;;;;;;;5050460;28;20291;-64
2021/01/19 01:44:06;;;;;;;0.75;0.75;;;;;;;;;;5053520;28;20438;-65
2021/01/19 01:46:34;;;;;;;1.02;1.02;;;;;;;;;;5056736;28;20176;-65
2021/01/19 01:49:00;;;;;;;0.60;0.60;;;;;;;;;;5057395;28;20582;-64
2021/01/19 01:51:27;;;;;;;1.25;1.25;;;;;;;;;;5057662;28;20207;-65
2021/01/19 01:53:54;;;;;;;1.42;1.42;;;;;;;;;;5056216;28;20202;-65
2021/01/19 01:56:20;;;;;;;0.93;0.93;;;;;;;;;;5056920;28;20171;-65
2021/01/19 01:58:46;;;;;;;1.92;1.83;;;;;;;;;;5056911;28;20168;-64
2021/01/19 02:01:12;;;;;;;1.27;0.98;;;;;;;;;;5056675;28;20255;-64
2021/01/19 02:03:38;;;;;;;0.70;0.70;;;;;;;;;;5056820;28;20640;-65
2021/01/19 02:06:05;;;;;;;1.13;1.13;;;;;;;;;;5056602;28;20184;-65
2021/01/19 02:08:50;;;;;;;0.60;0.60;;;;;;;;;;5057283;28;20180;-64
2021/01/19 02:11:28;;;;;;;0.70;0.70;;;;;;;;;;5059696;28;20609;-64
2021/01/19 02:13:54;;;;;;;0.60;0.60;;;;;;;;;;5060871;28;20386;-65
2021/01/19 02:16:35;;;;;;;0.70;0.70;;;;;;;;;;5061020;28;20168;-64
2021/01/19 02:19:19;;;;;;;0.80;0.80;;;;;;;;;;5057063;28;20403;-64
2021/01/19 02:21:53;;;;;;;1.08;1.08;;;;;;;;;;5059401;28;20186;-64
2021/01/19 02:24:39;;;;;;;0.70;0.70;;;;;;;;;;5059964;28;20183;-64
2021/01/19 02:27:14;;;;;;;2.03;1.65;;;;;;;;;;5055633;28;20223;-64
2021/01/19 02:29:56;;;;;;;0.65;0.65;;;;;;;;;;5070995;28;20202;-65
2021/01/19 02:32:28;;;;;;;1.35;1.35;;;;;;;;;;5061133;28;20172;-64
2021/01/19 02:35:20;;;;;;;3.30;2.78;;;;;;;;;;5058237;28;20225;-64
2021/01/19 02:37:49;;;;;;;0.60;0.60;;;;;;;;;;5058697;28;20715;-63
2021/01/19 02:40:18;;;;;;;0.73;0.73;;;;;;;;;;5054398;28;20641;-65
2021/01/19 02:42:50;;;;;;;0.95;0.95;;;;;;;;;;5054259;28;20172;-65
2021/01/19 02:45:16;;;;;;;0.75;0.75;;;;;;;;;;5035002;28;20177;-64
2021/01/19 02:47:42;;;;;;;0.50;0.50;;;;;;;;;;5035118;28;20181;-64
2021/01/19 02:50:09;;;;;;;0.70;0.70;;;;;;;;;;5034642;28;20204;-62
2021/01/19 02:52:36;;;;;;;0.70;0.70;;;;;;;;;;5034432;28;20412;-64
2021/01/19 02:55:02;;;;;;;1.00;1.00;;;;;;;;;;5034723;28;20207;-65
2021/01/19 02:57:28;;;;;;;0.60;0.60;;;;;;;;;;5034736;28;20215;-64
2021/01/19 03:00:03;;;;;;;0.67;0.67;;;;;;;;;;5034481;28;20676;-64
2021/01/19 03:02:33;;;;;;;0.70;0.70;;;;;;;;;;5034985;28;20894;-64
2021/01/19 03:05:01;;;;;;;0.70;0.70;;;;;;;;;;5034420;28;20180;-63
2021/01/19 03:07:28;;;;;;;0.95;0.95;;;;;;;;;;5034503;28;20689;-64
2021/01/19 03:09:58;;;;;;;1.45;1.35;;;;;;;;;;5034266;28;20192;-64
2021/01/19 03:12:25;;;;;;;0.95;0.95;;;;;;;;;;5034404;28;20173;-64
2021/01/19 03:14:51;;;;;;;1.00;1.00;;;;;;;;;;5034348;28;20197;-64
2021/01/19 03:17:17;;;;;;;0.50;0.50;;;;;;;;;;5034275;28;20215;-64
2021/01/19 03:19:43;;;;;;;0.73;0.73;;;;;;;;;;5033926;28;20664;-64
2021/01/19 03:22:11;;;;;;;1.55;1.45;;;;;;;;;;5034278;28;20574;-65
2021/01/19 03:24:37;;;;;;;0.90;0.90;;;;;;;;;;5034366;28;20264;-65
2021/01/19 03:27:04;;;;;;;1.25;1.25;;;;;;;;;;5033697;28;20231;-63
2021/01/19 03:29:30;;;;;;;0.80;0.80;;;;;;;;;;5033944;28;20611;-65
2021/01/19 03:31:56;;;;;;;1.13;1.13;;;;;;;;;;5034098;28;20212;-65
2021/01/19 03:34:22;;;;;;;0.70;0.70;;;;;;;;;;5033839;28;20199;-65
2021/01/19 03:36:48;;;;;;;0.93;0.93;;;;;;;;;;5032713;28;20216;-64
2021/01/19 03:39:14;;;;;;;0.60;0.60;;;;;;;;;;5033637;28;20161;-65
2021/01/19 03:41:40;;;;;;;0.60;0.60;;;;;;;;;;5039811;23;20244;-65
2021/01/19 03:44:06;;;;;;;0.60;0.60;;;;;;;;;;5013623;28;20181;-65
2021/01/19 03:46:32;;;;;;;0.60;0.60;;;;;;;;;;5013083;28;20184;-65
2021/01/19 03:48:59;;;;;;;0.60;0.60;;;;;;;;;;5013666;28;20594;-65
2021/01/19 03:51:25;;;;;;;1.13;1.13;;;;;;;;;;5013815;28;20681;-64
2021/01/19 03:53:51;;;;;;;1.38;1.38;;;;;;;;;;5013611;28;20204;-65
2021/01/19 03:56:17;;;;;;;1.38;1.35;;;;;;;;;;5012704;28;20173;-64
2021/01/19 03:58:43;;;;;;;0.70;0.70;;;;;;;;;;5012500;28;20211;-60
2021/01/19 04:01:09;;;;;;;0.60;0.60;;;;;;;;;;5013337;28;20225;-65
2021/01/19 04:03:35;;;;;;;0.90;0.90;;;;;;;;;;5013454;28;20556;-65
2021/01/19 04:06:01;;;;;;;0.95;0.95;;;;;;;;;;5013493;28;20211;-64
2021/01/19 04:08:27;;;;;;;1.10;0.85;;;;;;;;;;5012497;28;20568;-65
2021/01/19 04:10:53;;;;;;;0.85;0.85;;;;;;;;;;5013021;28;20202;-63
2021/01/19 04:13:19;;;;;;;0.70;0.70;;;;;;;;;;5011731;28;20571;-65
2021/01/19 04:15:46;;;;;;;0.73;0.73;;;;;;;;;;5013213;28;20257;-65
2021/01/19 04:18:12;;;;;;;0.70;0.70;;;;;;;;;;5013057;28;20256;-64
2021/01/19 04:20:39;;;;;;;1.13;1.13;;;;;;;;;;5012890;28;20251;-66
2021/01/19 04:23:05;;;;;;;0.60;0.60;;;;;;;;;;5013209;28;20257;-65
2021/01/19 04:25:31;;;;;;;1.10;1.10;;;;;;;;;;5012960;28;20660;-65
2021/01/19 04:27:57;;;;;;;0.60;0.60;;;;;;;;;;5012913;28;20189;-65
2021/01/19 04:30:23;;;;;;;0.60;0.60;;;;;;;;;;5012615;28;20425;-65
2021/01/19 04:32:49;;;;;;;0.70;0.70;;;;;;;;;;5012885;28;20189;-65
2021/01/19 04:35:15;;;;;;;0.90;0.90;;;;;;;;;;5012840;28;20287;-65
2021/01/19 04:37:41;;;;;;;1.48;1.38;;;;;;;;;;5012106;28;20176;-61
2021/01/19 04:40:08;;;;;;;0.70;0.70;;;;;;;;;;5012213;28;20770;-65
2021/01/19 04:42:35;;;;;;;0.70;0.70;;;;;;;;;;5012800;28;20177;-65
2021/01/19 04:45:02;;;;;;;1.10;1.00;;;;;;;;;;5012654;28;20205;-66
2021/01/19 04:47:28;;;;;;;0.60;0.60;;;;;;;;;;5012547;28;20323;-65
2021/01/19 04:49:54;;;;;;;0.70;0.70;;;;;;;;;;5012290;28;20170;-65
2021/01/19 04:52:22;;;;;;;0.70;0.70;;;;;;;;;;5011185;28;20216;-64
2021/01/19 04:55:05;;;;;;;0.60;0.60;;;;;;;;;;5012482;28;20205;-65
2021/01/19 04:57:32;;;;;;;0.70;0.70;;;;;;;;;;5012484;28;20706;-65
2021/01/19 05:00:04;;;;;;;0.80;0.80;;;;;;;;;;5012352;28;20173;-65
2021/01/19 05:02:37;;;;;;;0.70;0.70;;;;;;;;;;5012481;28;20223;-66
2021/01/19 05:05:22;;;;;;;0.60;0.60;;;;;;;;;;5012344;28;20231;-66
2021/01/19 05:08:03;;;;;;;0.60;0.60;;;;;;;;;;5012296;28;20178;-66
2021/01/19 05:13:41;;;;;;;0.90;0.90;;;;;;;;;;5012259;28;20176;-66
2021/01/19 05:16:13;;;;;;;0.60;0.60;;;;;;;;;;5011478;28;20187;-65
2021/01/19 05:18:41;;;;;;;0.65;0.65;;;;;;;;;;5011534;28;20162;-65
2021/01/19 05:21:08;;;;;;;0.60;0.60;;;;;;;;;;5011805;28;20307;-65
2021/01/19 05:23:34;;;;;;;1.10;1.10;;;;;;;;;;5011925;28;20173;-65
2021/01/19 05:26:01;;;;;;;0.90;0.90;;;;;;;;;;5011910;28;20539;-65
2021/01/19 05:28:35;;;;;;;0.95;0.95;;;;;;;;;;5011898;28;20189;-64
2021/01/19 05:31:05;;;;;;;0.60;0.60;;;;;;;;;;5011647;28;20192;-65
2021/01/19 05:33:31;;;;;;;1.15;1.15;;;;;;;;;;5011748;28;20219;-65
2021/01/19 05:36:04;;;;;;;1.00;1.00;;;;;;;;;;5011882;28;20224;-65
2021/01/19 05:38:30;;;;;;;0.82;0.82;;;;;;;;;;5011611;28;20240;-65
2021/01/19 05:40:56;;;;;;;0.90;0.90;;;;;;;;;;5010847;28;20221;-65
2021/01/19 05:43:27;;;;;;;1.00;1.00;;;;;;;;;;5011813;28;20228;-66
2021/01/19 05:45:53;;;;;;;0.77;0.77;;;;;;;;;;5010503;28;20556;-64
2021/01/19 05:48:19;;;;;;;0.70;0.70;;;;;;;;;;5011503;28;20174;-65
2021/01/19 05:50:48;;;;;;;0.70;0.70;;;;;;;;;;5010856;28;20569;-66
2021/01/19 05:53:15;;;;;;;2.88;1.60;;;;;;;;;;5011691;28;20270;-65
2021/01/19 05:55:42;;;;;;;0.63;0.63;;;;;;;;;;5011062;28;20326;-65
2021/01/19 05:58:15;;;;;;;2.05;1.25;;;;;;;;;;5011523;28;20172;-63
2021/01/19 06:00:41;;;;;;;0.70;0.70;;;;;;;;;;5001062;28;20202;-64
2021/01/19 06:03:25;;;;;;;0.60;0.60;;;;;;;;;;4991949;28;20166;-66
2021/01/19 06:05:51;;;;;;;0.60;0.60;;;;;;;;;;4991902;28;20621;-65
2021/01/19 06:08:23;;;;;;;0.80;0.80;;;;;;;;;;4991890;28;20217;-66
2021/01/19 06:10:49;;;;;;;0.80;0.80;;;;;;;;;;5004360;28;20451;-64
2021/01/19 06:13:17;;;;;;;0.60;0.60;;;;;;;;;;5011127;28;20603;-63
2021/01/19 06:15:43;;;;;;;1.63;1.63;;;;;;;;;;5011445;28;20194;-62
2021/01/19 06:18:09;;;;;;;1.15;1.15;;;;;;;;;;5011465;28;20209;-65
2021/01/19 06:20:42;;;;;;;0.60;0.60;;;;;;;;;;5010707;28;20197;-65
2021/01/19 06:23:11;;;;;;;0.50;0.50;;;;;;;;;;5011017;28;20174;-66
2021/01/19 06:25:37;;;;;;;0.90;0.90;;;;;;;;;;5011321;28;20209;-66
2021/01/19 06:28:10;;;;;;;0.80;0.80;;;;;;;;;;5011406;28;20265;-65
2021/01/19 06:30:36;;;;;;;0.60;0.60;;;;;;;;;;5010809;28;20665;-65
2021/01/19 06:33:02;;;;;;;0.80;0.80;;;;;;;;;;5011131;28;20208;-63
2021/01/19 06:35:29;;;;;;;1.08;1.08;;;;;;;;;;5010440;28;20802;-63
2021/01/19 06:37:55;;;;;;;1.23;1.23;;;;;;;;;;5011029;28;20311;-65
2021/01/19 06:40:22;;;;;;;0.90;0.90;;;;;;;;;;5010668;28;20244;-62
2021/01/19 06:42:56;;;;;;;0.60;0.60;;;;;;;;;;5012646;28;20649;-63
2021/01/19 06:45:22;;;;;;;0.82;0.82;;;;;;;;;;5013458;28;20204;-64
2021/01/19 06:47:49;;;;;;;0.80;0.80;;;;;;;;;;5013067;28;20174;-63
2021/01/19 06:50:18;;;;;;;0.77;0.77;;;;;;;;;;5011882;28;20201;-65
2021/01/19 06:52:47;;;;;;;0.60;0.60;;;;;;;;;;5011338;28;20608;-63
2021/01/19 06:55:20;;;;;;;0.50;0.50;;;;;;;;;;5011872;28;20247;-64
2021/01/19 06:58:05;;;;;;;0.80;0.80;;;;;;;;;;5011423;28;20173;-64
2021/01/19 07:00:37;;;;;;;1.00;1.00;;;;;;;;;;4991234;28;20223;-64
2021/01/19 07:03:11;;;;;;;0.80;0.80;;;;;;;;;;4995384;28;20158;-64
2021/01/19 07:05:39;;;;;;;0.88;0.88;;;;;;;;;;5008928;28;20188;-64
2021/01/19 07:08:17;;;;;;;1.33;1.27;;;;;;;;;;5015432;28;20184;-64
2021/01/19 07:11:05;;;;;;;0.60;0.60;;;;;;;;;;5014935;28;20196;-65
2021/01/19 07:13:37;;;;;;;0.93;0.93;;;;;;;;;;5016413;28;20178;-65
2021/01/19 07:16:07;;;;;;;0.60;0.60;;;;;;;;;;5015741;28;20177;-64
2021/01/19 07:18:51;;;;;;;0.80;0.80;;;;;;;;;;5014245;28;20177;-65
2021/01/19 07:21:20;;;;;;;0.70;0.70;;;;;;;;;;5013999;28;20291;-66
2021/01/19 07:23:49;;;;;;;0.65;0.65;;;;;;;;;;5012282;28;20189;-66
2021/01/19 07:26:23;;;;;;;0.60;0.60;;;;;;;;;;5013684;28;20195;-64
2021/01/19 07:28:50;;;;;;;0.73;0.73;;;;;;;;;;5013840;28;20255;-64
2021/01/19 07:31:17;;;;;;;1.08;1.02;;;;;;;;;;5012994;28;20624;-65
2021/01/19 07:33:44;;;;;;;0.70;0.70;;;;;;;;;;5011826;28;20192;-66
2021/01/19 07:36:15;;;;;;;0.60;0.60;;;;;;;;;;5013673;28;20660;-66
2021/01/19 07:38:41;;;;;;;1.00;1.00;;;;;;;;;;5013803;28;20307;-67
2021/01/19 07:41:07;;;;;;;0.90;0.90;;;;;;;;;;5013224;28;20205;-66
2021/01/19 07:43:34;;;;;;;0.90;0.90;;;;;;;;;;5013681;28;20173;-64
2021/01/19 07:46:00;;;;;;;0.70;0.70;;;;;;;;;;5013362;28;20173;-66
2021/01/19 07:48:29;;;;;;;0.70;0.70;;;;;;;;;;5013241;28;20235;-66
2021/01/19 07:50:55;;;;;;;0.90;0.90;;;;;;;;;;5011303;28;20197;-64
2021/01/19 07:53:22;;;;;;;0.80;0.80;;;;;;;;;;5012608;28;20173;-65
2021/01/19 07:55:48;;;;;;;0.95;0.90;;;;;;;;;;5012918;28;20197;-65
2021/01/19 07:58:15;;;;;;;0.95;0.95;;;;;;;;;;5013359;28;20228;-67
2021/01/19 08:00:44;;;;;;;1.05;1.05;;;;;;;;;;5013128;28;20196;-65
2021/01/19 08:03:10;;;;;;;0.50;0.50;;;;;;;;;;5013580;28;20178;-66
2021/01/19 08:05:37;;;;;;;0.70;0.70;;;;;;;;;;5013376;28;20231;-66
2021/01/19 08:08:16;;;;;;;0.60;0.60;;;;;;;;;;5012900;28;20177;-66
2021/01/19 08:10:52;;;;;;;0.80;0.80;;;;;;;;;;5012996;28;20580;-66
2021/01/19 08:13:18;;;;;;;0.73;0.73;;;;;;;;;;5013025;28;20176;-66
2021/01/19 08:15:47;;;;;;;0.80;0.80;;;;;;;;;;5012949;28;20224;-66
2021/01/19 08:18:17;;;;;;;0.70;0.70;;;;;;;;;;5012298;28;20165;-66
2021/01/19 08:20:43;;;;;;;0.70;0.70;;;;;;;;;;5012647;28;20192;-66
2021/01/19 08:23:09;;;;;;;0.57;0.57;;;;;;;;;;5012960;28;20170;-66
2021/01/19 08:25:35;;;;;;;1.25;0.93;;;;;;;;;;5012825;28;20170;-65
2021/01/19 08:28:01;;;;;;;0.60;0.60;;;;;;;;;;5012628;28;20173;-66
2021/01/19 08:30:28;;;;;;;1.52;1.42;;;;;;;;;;5012289;28;20224;-66
2021/01/19 08:32:55;;;;;;;0.50;0.50;;;;;;;;;;5012818;28;20539;-65
2021/01/19 08:35:22;;;;;;;0.50;0.50;;;;;;;;;;5012879;28;20244;-66
2021/01/19 08:37:53;;;;;;;0.70;0.70;;;;;;;;;;5012874;28;20597;-66
2021/01/19 08:40:29;;;;;;;1.25;1.25;;;;;;;;;;5011678;28;20640;-66
2021/01/19 08:42:56;;;;;;;1.08;1.08;;;;;;;;;;5012517;28;20173;-66
2021/01/19 08:45:26;;;;;;;1.60;1.15;;;;;;;;;;5012583;28;20660;-66
2021/01/19 08:47:57;;;;;;;0.70;0.70;;;;;;;;;;5012461;28;20201;-67
2021/01/19 08:50:24;;;;;;;0.50;0.50;;;;;;;;;;5012119;28;20204;-66
2021/01/19 08:52:50;;;;;;;1.48;1.38;;;;;;;;;;5012268;28;20180;-66
2021/01/19 08:55:17;;;;;;;0.80;0.80;;;;;;;;;;5012437;28;20201;-66
2021/01/19 08:57:45;;;;;;;1.00;1.00;;;;;;;;;;5012417;28;20570;-66
2021/01/19 09:00:11;;;;;;;0.90;0.90;;;;;;;;;;5011988;28;20201;-66
2021/01/19 09:02:37;;;;;;;1.05;1.05;;;;;;;;;;5011780;28;20173;-67
2021/01/19 09:05:04;;;;;;;0.90;0.90;;;;;;;;;;5012486;28;20227;-66
2021/01/19 09:07:30;;;;;;;0.50;0.50;;;;;;;;;;5012145;28;20419;-66
2021/01/19 09:09:56;;;;;;;1.30;1.30;;;;;;;;;;5010994;28;20235;-66
2021/01/19 09:12:22;;;;;;;0.80;0.80;;;;;;;;;;5011958;28;20201;-66
2021/01/19 09:14:52;;;;;;;0.60;0.60;;;;;;;;;;5011289;28;20240;-66
2021/01/19 09:17:25;;;;;;;0.50;0.50;;;;;;;;;;5011804;28;20173;-67
2021/01/19 09:20:04;;;;;;;0.70;0.70;;;;;;;;;;5011366;28;20531;-67
2021/01/19 09:22:30;;;;;;;0.85;0.85;;;;;;;;;;5011422;28;20182;-67
2021/01/19 09:24:56;;;;;;;0.70;0.70;;;;;;;;;;5010672;28;20177;-66
2021/01/19 09:27:22;;;;;;;0.80;0.80;;;;;;;;;;5011593;28;20173;-66
2021/01/19 09:29:48;;;;;;;0.90;0.90;;;;;;;;;;5011306;28;20669;-66
2021/01/19 09:32:18;;;;;;;0.93;0.93;;;;;;;;;;5011690;28;20181;-66
2021/01/19 09:34:44;;;;;;;0.60;0.60;;;;;;;;;;5011361;28;20194;-66
2021/01/19 09:37:11;;;;;;;0.60;0.60;;;;;;;;;;5011033;28;20208;-67
2021/01/19 09:39:39;;;;;;;0.90;0.90;;;;;;;;;;5011385;28;20260;-66
2021/01/19 09:42:05;;;;;;;0.90;0.90;;;;;;;;;;5040995;22;20233;-64
2021/01/19 09:44:32;;;;;;;0.60;0.60;;;;;;;;;;5031501;28;20180;-64
2021/01/19 09:47:02;;;;;;;1.00;1.00;;;;;;;;;;5030889;28;20165;-64
2021/01/19 09:49:28;;;;;;;0.73;0.73;;;;;;;;;;5030873;28;20169;-64
2021/01/19 09:51:54;;;;;;;1.75;1.65;;;;;;;;;;5031364;28;20192;-64
2021/01/19 09:54:24;;;;;;;0.95;0.93;;;;;;;;;;5031644;28;20244;-64
2021/01/19 09:57:00;;;;;;;1.10;1.05;;;;;;;;;;5029887;28;20196;-65
2021/01/19 09:59:26;;;;;;;0.85;0.85;;;;;;;;;;5030670;28;20210;-64
2021/01/19 10:01:56;;;;;;;0.52;0.52;;;;;;;;;;5031124;28;20571;-64
2021/01/19 10:04:22;;;;;;;0.60;0.60;;;;;;;;;;5031338;28;20552;-64
2021/01/19 10:06:48;;;;;;;0.50;0.50;;;;;;;;;;5030988;28;20179;-64
2021/01/19 10:09:21;;;;;;;1.95;1.48;;;;;;;;;;5029246;28;20529;-64
2021/01/19 10:11:55;;;;;;;0.60;0.60;;;;;;;;;;5029646;28;20204;-65
2021/01/19 10:14:21;;;;;;;0.50;0.50;;;;;;;;;;5029755;28;20197;-64
2021/01/19 10:16:48;;;;;;;0.60;0.60;;;;;;;;;;5031193;28;20169;-65
2021/01/19 10:19:21;;;;;;;0.73;0.73;;;;;;;;;;5031237;28;20165;-65
2021/01/19 10:21:49;;;;;;;0.60;0.60;;;;;;;;;;5030517;28;20189;-65
2021/01/19 10:24:15;;;;;;;0.70;0.70;;;;;;;;;;5029908;28;20173;-65
2021/01/19 10:26:44;;;;;;;0.70;0.70;;;;;;;;;;5031070;28;20525;-65
2021/01/19 10:29:10;;;;;;;0.95;0.95;;;;;;;;;;5030462;28;20206;-63
2021/01/19 10:31:45;;;;;;;0.70;0.70;;;;;;;;;;5030607;28;20189;-63
2021/01/19 10:34:14;;;;;;;0.50;0.50;;;;;;;;;;5031059;28;20196;-63
2021/01/19 10:36:51;;;;;;;0.75;0.75;;;;;;;;;;5032442;28;20173;-63
2021/01/19 10:39:17;;;;;;;0.95;0.95;;;;;;;;;;5034637;28;20173;-63
2021/01/19 10:41:43;;;;;;;0.95;0.95;;;;;;;;;;5034599;28;20215;-63
2021/01/19 10:44:11;;;;;;;1.30;1.20;;;;;;;;;;5034290;28;20181;-63
2021/01/19 10:46:38;;;;;;;1.00;0.82;;;;;;;;;;5034846;28;20575;-65
2021/01/19 10:49:08;;;;;;;0.60;0.60;;;;;;;;;;5034389;28;20185;-65
2021/01/19 10:51:34;;;;;;;1.10;1.10;;;;;;;;;;5034731;28;20275;-65
2021/01/19 10:54:04;;;;;;;0.90;0.90;;;;;;;;;;5034043;28;20196;-65
2021/01/19 10:56:30;;;;;;;0.70;0.70;;;;;;;;;;5034351;28;20180;-65
2021/01/19 10:58:56;;;;;;;0.57;0.57;;;;;;;;;;5034232;28;20169;-64
2021/01/19 11:01:22;;;;;;;0.88;0.88;;;;;;;;;;5034083;28;20200;-64
2021/01/19 11:03:48;;;;;;;1.30;1.30;;;;;;;;;;5034338;28;20169;-64
2021/01/19 11:06:14;;;;;;;1.07;1.07;;;;;;;;;;5033876;28;20415;-64
2021/01/19 11:08:40;;;;;;;0.88;0.88;;;;;;;;;;5034216;28;20435;-64
2021/01/19 11:11:06;;;;;;;0.90;0.90;;;;;;;;;;5033910;28;20188;-64
2021/01/19 11:13:32;;;;;;;0.50;0.50;;;;;;;;;;5034478;28;20454;-65
2021/01/19 11:15:58;;;;;;;0.60;0.60;;;;;;;;;;5032865;28;20627;-64
2021/01/19 11:18:24;;;;;;;0.60;0.60;;;;;;;;;;5034067;28;20408;-64
2021/01/19 11:20:50;;;;;;;1.13;1.13;;;;;;;;;;5033842;28;20423;-64
2021/01/19 11:23:16;;;;;;;1.02;1.02;;;;;;;;;;5034017;28;20403;-64
2021/01/19 11:25:42;;;;;;;0.80;0.80;;;;;;;;;;5034129;28;20184;-64
2021/01/19 11:28:08;;;;;;;1.95;1.85;;;;;;;;;;5033743;28;20181;-64
2021/01/19 11:30:34;;;;;;;1.63;1.52;;;;;;;;;;5034029;28;20200;-64
2021/01/19 11:33:00;;;;;;;1.57;1.47;;;;;;;;;;5033711;28;20180;-64
2021/01/19 11:35:26;;;;;;;1.25;1.25;;;;;;;;;;5033944;28;20814;-64
2021/01/19 11:37:55;;;;;;;1.00;1.00;;;;;;;;;;5032395;28;20177;-64
2021/01/19 11:40:21;;;;;;;0.60;0.60;;;;;;;;;;5033524;28;20262;-64
2021/01/19 11:42:47;;;;;;;0.90;0.90;;;;;;;;;;5034142;28;20256;-64
2021/01/19 11:45:13;;;;;;;0.80;0.80;;;;;;;;;;5033699;28;20264;-65
2021/01/19 11:47:40;;;;;;;0.50;0.50;;;;;;;;;;5033418;28;20906;-65
2021/01/19 11:50:06;;;;;;;1.40;1.25;;;;;;;;;;5032937;28;20657;-65
2021/01/19 11:52:32;;;;;;;0.70;0.70;;;;;;;;;;5033062;28;20219;-65
2021/01/19 11:54:58;;;;;;;0.98;0.98;;;;;;;;;;5031771;28;20236;-65
2021/01/19 11:57:24;;;;;;;1.13;1.02;;;;;;;;;;5033543;28;20216;-65
2021/01/19 11:59:50;;;;;;;1.10;0.93;;;;;;;;;;5033406;28;20651;-65
2021/01/19 12:02:16;;;;;;;0.90;0.90;;;;;;;;;;5033136;28;20239;-65
2021/01/19 12:04:42;;;;;;;2.15;1.80;;;;;;;;;;5033190;28;20422;-65
2021/01/19 12:07:08;;;;;;;0.55;0.55;;;;;;;;;;5033167;28;20184;-65
2021/01/19 12:09:35;;;;;;;0.80;0.80;;;;;;;;;;5032783;28;20177;-65
2021/01/19 12:12:01;;;;;;;0.75;0.75;;;;;;;;;;5032809;28;20197;-65
2021/01/19 12:14:27;;;;;;;0.50;0.50;;;;;;;;;;5032766;28;20192;-65
2021/01/19 12:16:53;;;;;;;1.08;0.82;;;;;;;;;;5032979;28;20179;-65
2021/01/19 12:19:19;;;;;;;0.70;0.70;;;;;;;;;;5032733;28;20646;-65
2021/01/19 12:21:52;;;;;;;0.82;0.82;;;;;;;;;;5032796;28;20231;-65
2021/01/19 12:24:19;;;;;;;0.60;0.60;;;;;;;;;;5032404;28;20686;-65
2021/01/19 12:26:45;;;;;;;0.50;0.50;;;;;;;;;;5032831;28;20169;-65
2021/01/19 12:29:12;;;;;;;0.80;0.80;;;;;;;;;;5032442;28;20523;-65
2021/01/19 12:31:39;;;;;;;1.00;1.00;;;;;;;;;;5032809;28;20189;-65
2021/01/19 12:34:05;;;;;;;1.00;1.00;;;;;;;;;;5032341;28;20220;-65
2021/01/19 12:36:31;;;;;;;1.23;1.20;;;;;;;;;;5032139;28;20177;-65
2021/01/19 12:38:58;;;;;;;0.50;0.50;;;;;;;;;;5031229;28;20177;-65
2021/01/19 12:41:24;;;;;;;0.80;0.80;;;;;;;;;;5032257;28;20207;-65
2021/01/19 12:43:50;;;;;;;0.60;0.60;;;;;;;;;;5032437;28;20523;-65
2021/01/19 12:46:18;;;;;;;0.50;0.50;;;;;;;;;;5032304;28;20177;-65
2021/01/19 12:48:44;;;;;;;0.50;0.50;;;;;;;;;;5032175;28;20489;-65
2021/01/19 12:51:20;;;;;;;1.73;1.10;;;;;;;;;;5032096;28;20197;-65
2021/01/19 12:53:46;;;;;;;4.32;1.67;;;;;;;;;;5032180;28;20717;-65
2021/01/19 12:56:13;;;;;;;1.02;1.02;;;;;;;;;;5031684;28;20181;-65
2021/01/19 12:58:39;;;;;;;0.60;0.60;;;;;;;;;;5031301;28;20224;-65
2021/01/19 13:01:05;;;;;;;0.60;0.60;;;;;;;;;;5031863;28;20223;-65
2021/01/19 13:03:32;;;;;;;0.60;0.60;;;;;;;;;;5032125;28;20640;-65
2021/01/19 13:05:59;;;;;;;1.10;1.10;;;;;;;;;;5030662;28;20661;-65
2021/01/19 13:08:25;;;;;;;0.80;0.80;;;;;;;;;;5031083;28;20212;-65
2021/01/19 13:10:51;;;;;;;1.15;0.82;;;;;;;;;;5031740;28;20909;-65
2021/01/19 13:13:17;;;;;;;0.60;0.60;;;;;;;;;;5032081;28;20314;-65
2021/01/19 13:15:43;;;;;;;0.60;0.60;;;;;;;;;;5031924;28;20568;-65
2021/01/19 13:18:09;;;;;;;1.48;1.08;;;;;;;;;;5031799;28;20177;-65
2021/01/19 13:20:35;;;;;;;0.50;0.50;;;;;;;;;;5029917;28;20533;-65
2021/01/19 13:23:01;;;;;;;0.50;0.50;;;;;;;;;;5031800;28;20179;-65
2021/01/19 13:25:27;;;;;;;1.07;1.07;;;;;;;;;;5031768;28;20416;-65
2021/01/19 13:27:53;;;;;;;0.85;0.85;;;;;;;;;;5031567;28;20505;-65
2021/01/19 13:30:20;;;;;;;0.50;0.50;;;;;;;;;;5030865;28;20204;-65
2021/01/19 13:32:46;;;;;;;0.70;0.70;;;;;;;;;;5031417;28;20204;-65
2021/01/19 13:35:13;;;;;;;0.60;0.60;;;;;;;;;;5031807;28;20200;-65
2021/01/19 13:37:39;;;;;;;0.65;0.65;;;;;;;;;;5031559;28;20193;-65
2021/01/19 13:40:05;;;;;;;0.50;0.50;;;;;;;;;;5031344;28;20204;-65
2021/01/19 13:42:31;;;;;;;1.15;1.15;;;;;;;;;;5030851;28;20229;-65
2021/01/19 13:44:57;;;;;;;0.40;0.40;;;;;;;;;;5031582;28;20205;-65
2021/01/19 13:47:25;;;;;;;0.50;0.50;;;;;;;;;;5031487;28;20714;-65
2021/01/19 13:49:51;;;;;;;0.60;0.60;;;;;;;;;;5031223;28;20177;-65
2021/01/19 13:52:17;;;;;;;0.50;0.50;;;;;;;;;;5031260;28;20843;-64
2021/01/19 13:54:43;;;;;;;0.80;0.80;;;;;;;;;;5031119;28;20850;-64
2021/01/19 13:57:09;;;;;;;1.08;1.02;;;;;;;;;;5031391;28;20200;-63
2021/01/19 13:59:35;;;;;;;0.60;0.60;;;;;;;;;;5031096;28;20206;-63
2021/01/19 14:02:01;;;;;;;2.13;1.17;;;;;;;;;;5031115;28;20218;-63
2021/01/19 14:04:27;;;;;;;0.50;0.50;;;;;;;;;;5030581;28;20420;-63
2021/01/19 14:06:53;;;;;;;0.67;0.67;;;;;;;;;;5031208;28;20169;-63
2021/01/19 14:09:19;;;;;;;1.25;0.77;;;;;;;;;;5030991;28;20934;-63
2021/01/19 14:11:45;;;;;;;0.70;0.70;;;;;;;;;;5034571;28;20197;-63
2021/01/19 14:14:23;;;;;;;0.50;0.50;;;;;;;;;;5034675;28;20447;-63
2021/01/19 14:16:54;;;;;;;0.60;0.60;;;;;;;;;;5034753;28;20185;-63
2021/01/19 14:19:20;;;;;;;0.70;0.70;;;;;;;;;;5034936;28;20169;-63
2021/01/19 14:21:46;;;;;;;0.60;0.60;;;;;;;;;;5033769;28;20692;-64
2021/01/19 14:24:12;;;;;;;0.50;0.50;;;;;;;;;;5035078;28;20183;-64
2021/01/19 14:26:38;;;;;;;0.50;0.50;;;;;;;;;;5034588;28;20401;-63
2021/01/19 14:29:05;;;;;;;0.60;0.60;;;;;;;;;;5034559;28;20173;-63
2021/01/19 14:31:35;;;;;;;0.70;0.70;;;;;;;;;;5034805;28;20194;-63
2021/01/19 14:34:01;;;;;;;2.00;1.48;;;;;;;;;;5034821;28;20268;-63
2021/01/19 14:36:27;;;;;;;0.60;0.60;;;;;;;;;;5034814;28;20200;-64
2021/01/19 14:38:53;;;;;;;0.60;0.60;;;;;;;;;;5034080;28;20170;-63
2021/01/19 14:41:19;;;;;;;0.50;0.50;;;;;;;;;;5034592;28;20240;-64
2021/01/19 14:43:45;;;;;;;0.55;0.55;;;;;;;;;;5034482;28;20174;-63
2021/01/19 14:46:12;;;;;;;1.02;1.02;;;;;;;;;;5034427;28;20480;-63
2021/01/19 14:48:38;;;;;;;0.50;0.50;;;;;;;;;;5034241;28;20185;-63
2021/01/19 14:51:04;;;;;;;0.50;0.50;;;;;;;;;;5034201;28;20256;-63